createdAt,value
2023-01-19T00:04:52.769Z,1.72
2023-01-19T00:10:39.366Z,2.16
2023-01-19T00:16:26.117Z,2.17
2023-01-19T00:22:12.823Z,1.99
2023-01-19T00:28:01.698Z,1.86
2023-01-19T00:33:54.843Z,1.76
2023-01-19T00:39:44.366Z,1.80
2023-01-19T00:45:31.589Z,1.63
2023-01-19T00:51:18.493Z,1.72
2023-01-19T00:57:08.215Z,1.91
2023-01-19T01:02:55.422Z,1.79
2023-01-19T01:08:42.301Z,1.57
2023-01-19T01:14:29.597Z,1.59
2023-01-19T01:20:19.134Z,1.43
2023-01-19T01:26:05.798Z,1.76
2023-01-19T01:31:52.900Z,1.56
2023-01-19T01:37:40.138Z,1.66
2023-01-19T01:43:56.528Z,1.64
2023-01-19T01:49:43.698Z,1.59
2023-01-19T01:55:32.397Z,1.58
2023-01-19T02:01:37.661Z,1.61
2023-01-19T02:07:55.000Z,1.78
2023-01-19T02:13:45.138Z,1.65
2023-01-19T02:19:40.787Z,1.52
2023-01-19T02:25:27.491Z,1.28
2023-01-19T02:31:15.199Z,1.15
2023-01-19T02:37:07.347Z,1.32
2023-01-19T02:42:58.905Z,1.43
2023-01-19T02:48:45.687Z,1.37
2023-01-19T02:54:41.437Z,1.45
2023-01-19T03:00:33.972Z,1.15
2023-01-19T03:06:46.464Z,1.31
2023-01-19T03:12:48.499Z,1.21
2023-01-19T03:18:36.135Z,1.35
2023-01-19T03:24:24.953Z,1.37
2023-01-19T03:30:16.209Z,1.39
2023-01-19T03:36:13.652Z,1.53
2023-01-19T03:42:05.078Z,1.39
2023-01-19T03:47:52.281Z,1.53
2023-01-19T03:53:39.037Z,1.59
2023-01-19T03:59:25.733Z,1.42
2023-01-19T04:05:12.432Z,1.47
2023-01-19T04:10:59.335Z,1.50
2023-01-19T04:16:46.340Z,1.54
2023-01-19T04:22:33.139Z,1.48
2023-01-19T04:28:20.106Z,1.61
2023-01-19T04:34:06.803Z,1.62
2023-01-19T04:39:53.487Z,1.80
2023-01-19T04:45:40.242Z,1.49
2023-01-19T04:51:28.694Z,1.59
2023-01-19T04:57:15.321Z,1.41
2023-01-19T05:03:02.679Z,1.35
2023-01-19T05:08:49.754Z,1.22
2023-01-19T05:14:36.747Z,1.42
2023-01-19T05:20:24.003Z,1.44
2023-01-19T05:26:10.674Z,1.40
2023-01-19T05:31:58.100Z,1.26
2023-01-19T05:37:44.760Z,1.24
2023-01-19T05:43:31.455Z,1.01
2023-01-19T05:49:18.204Z,1.28
2023-01-19T05:55:05.522Z,1.27
2023-01-19T06:00:52.337Z,1.16
2023-01-19T06:06:39.300Z,1.29
2023-01-19T06:12:26.156Z,1.26
2023-01-19T06:18:13.039Z,1.31
2023-01-19T06:23:59.878Z,1.35
2023-01-19T06:29:46.478Z,1.37
2023-01-19T06:35:33.253Z,1.23
2023-01-19T06:41:19.938Z,0.94
2023-01-19T06:47:15.737Z,0.69
2023-01-19T06:53:03.381Z,0.82
2023-01-19T06:58:54.125Z,0.98
2023-01-19T07:04:40.823Z,1.00
2023-01-19T07:10:27.882Z,0.89
2023-01-19T07:16:34.712Z,0.80
2023-01-19T07:22:21.370Z,0.81
2023-01-19T07:28:08.083Z,1.11
2023-01-19T07:33:54.925Z,1.32
2023-01-19T07:39:41.627Z,1.15
2023-01-19T07:45:28.253Z,1.14
2023-01-19T07:51:18.955Z,1.10
2023-01-19T07:57:05.804Z,1.12
2023-01-19T08:02:53.879Z,1.36
2023-01-19T08:08:40.525Z,1.48
2023-01-19T08:14:27.257Z,1.43
2023-01-19T08:20:14.384Z,1.36
2023-01-19T08:26:01.610Z,1.40
2023-01-19T08:31:48.621Z,1.45
2023-01-19T08:37:35.466Z,1.46
2023-01-19T08:43:22.812Z,1.51
2023-01-19T08:49:09.708Z,1.52
2023-01-19T08:54:56.701Z,1.41
2023-01-19T09:00:43.527Z,1.59
2023-01-19T09:06:30.383Z,1.73
2023-01-19T09:12:17.175Z,1.76
2023-01-19T09:18:06.127Z,1.89
2023-01-19T09:23:54.831Z,2.16
2023-01-19T09:29:41.588Z,2.58
2023-01-19T09:35:28.516Z,3.11
2023-01-19T09:41:22.198Z,3.31
2023-01-19T09:47:16.476Z,3.41
2023-01-19T09:53:13.736Z,3.64
2023-01-19T09:59:11.693Z,3.87
2023-01-19T10:05:25.508Z,4.07
2023-01-19T10:11:53.186Z,4.23
2023-01-19T10:17:47.974Z,4.21
2023-01-19T10:23:57.046Z,4.48
2023-01-19T10:29:45.198Z,4.56
2023-01-19T10:35:35.747Z,4.70
2023-01-19T10:41:36.274Z,4.87
2023-01-19T10:47:31.491Z,5.02
2023-01-19T10:53:22.797Z,5.15
2023-01-19T10:59:38.212Z,5.33
2023-01-19T11:05:28.035Z,5.28
2023-01-19T11:11:15.077Z,5.62
2023-01-19T11:17:01.961Z,5.32
2023-01-19T11:23:03.889Z,5.42
2023-01-19T11:28:54.586Z,5.77
2023-01-19T11:34:41.302Z,6.05
2023-01-19T11:40:28.104Z,5.85
2023-01-19T11:46:17.890Z,5.82
2023-01-19T11:52:16.924Z,5.57
2023-01-19T11:58:15.246Z,6.08
2023-01-19T12:04:14.868Z,6.60
2023-01-19T12:10:42.679Z,6.74
2023-01-19T12:16:32.795Z,6.40
2023-01-19T12:22:21.078Z,6.64
2023-01-19T12:28:12.877Z,6.88
2023-01-19T12:34:26.189Z,6.61
2023-01-19T12:40:31.425Z,6.63
2023-01-19T12:46:30.377Z,6.51
2023-01-19T12:52:51.256Z,6.62
2023-01-19T12:58:38.150Z,6.30
2023-01-19T13:04:33.391Z,6.33
2023-01-19T13:11:13.122Z,6.33
2023-01-19T13:17:05.707Z,6.21
2023-01-19T13:23:15.921Z,6.19
2023-01-19T13:29:26.841Z,6.03
2023-01-19T13:35:17.240Z,5.99
2023-01-19T13:41:04.396Z,5.80
2023-01-19T13:46:52.587Z,6.04
2023-01-19T13:52:43.615Z,5.67
2023-01-19T13:58:32.031Z,5.83
2023-01-19T14:04:31.346Z,5.96
2023-01-19T14:10:18.520Z,5.90
2023-01-19T14:16:15.569Z,6.11
2023-01-19T14:22:04.674Z,6.11
2023-01-19T14:27:54.253Z,5.62
2023-01-19T14:33:43.721Z,5.37
2023-01-19T14:39:34.385Z,5.30
2023-01-19T14:45:26.925Z,5.58
2023-01-19T14:51:18.131Z,5.23
2023-01-19T14:57:05.801Z,5.16
2023-01-19T15:02:52.885Z,5.15
2023-01-19T15:08:40.532Z,5.30
2023-01-19T15:14:27.874Z,5.20
2023-01-19T15:20:18.232Z,5.28
2023-01-19T15:26:05.468Z,5.41
2023-01-19T15:31:53.096Z,5.15
2023-01-19T15:37:39.770Z,4.88
2023-01-19T15:43:26.424Z,5.14
2023-01-19T15:49:14.232Z,5.07
2023-01-19T15:55:01.014Z,4.80
2023-01-19T16:00:56.005Z,4.88
2023-01-19T16:06:42.929Z,4.51
2023-01-19T16:12:29.800Z,4.37
2023-01-19T16:18:16.514Z,4.19
2023-01-19T16:24:03.469Z,4.10
2023-01-19T16:29:50.302Z,3.91
2023-01-19T16:35:37.114Z,4.03
2023-01-19T16:41:23.924Z,4.06
2023-01-19T16:47:11.157Z,3.80
2023-01-19T16:52:58.244Z,3.62
2023-01-19T16:59:12.606Z,3.54
2023-01-19T17:06:37.151Z,3.79
2023-01-19T17:12:26.518Z,3.68
2023-01-19T17:18:16.638Z,3.78
2023-01-19T17:24:04.515Z,3.73
2023-01-19T17:29:52.739Z,3.79
2023-01-19T17:35:43.251Z,3.84
2023-01-19T17:41:33.174Z,3.85
2023-01-19T17:47:25.728Z,3.67
2023-01-19T17:53:23.467Z,3.71
2023-01-19T17:59:10.574Z,3.70
2023-01-19T18:04:59.337Z,3.55
2023-01-19T18:10:54.473Z,3.40
2023-01-19T18:16:41.159Z,3.34
2023-01-19T18:22:28.060Z,3.37
2023-01-19T18:28:15.659Z,3.35
2023-01-19T18:34:02.808Z,3.24
2023-01-19T18:39:50.479Z,3.26
2023-01-19T18:45:38.281Z,2.95
2023-01-19T18:51:25.235Z,2.95
2023-01-19T18:57:16.866Z,2.86
2023-01-19T19:03:04.569Z,2.74
2023-01-19T19:08:56.190Z,2.82
2023-01-19T19:14:43.751Z,2.77
2023-01-19T19:20:30.718Z,2.61
2023-01-19T19:26:17.550Z,2.59
2023-01-19T19:32:04.596Z,2.45
2023-01-19T19:37:58.536Z,2.65
2023-01-19T19:43:48.569Z,2.72
2023-01-19T19:49:35.661Z,2.68
2023-01-19T19:55:22.411Z,2.70
2023-01-19T20:01:14.032Z,2.63
2023-01-19T20:07:00.995Z,2.28
2023-01-19T20:12:52.899Z,2.29
2023-01-19T20:18:43.878Z,2.11
2023-01-19T20:24:30.673Z,1.95
2023-01-19T20:30:21.422Z,2.13
2023-01-19T20:36:10.514Z,2.07
2023-01-19T20:41:57.483Z,2.13
2023-01-19T20:47:44.673Z,1.77
2023-01-19T20:53:32.067Z,1.65
2023-01-19T20:59:20.673Z,1.81
2023-01-19T21:05:08.204Z,1.71
2023-01-19T21:10:58.155Z,1.76
2023-01-19T21:16:45.000Z,1.65
2023-01-19T21:22:32.342Z,1.52
2023-01-19T21:28:20.025Z,1.56
2023-01-19T21:34:07.032Z,1.59
2023-01-19T21:39:53.991Z,1.81
2023-01-19T21:45:43.148Z,1.59
2023-01-19T21:51:35.581Z,1.71
2023-01-19T21:57:22.388Z,1.77
2023-01-19T22:03:10.280Z,1.82
2023-01-19T22:09:00.782Z,1.81
2023-01-19T22:15:05.749Z,1.61
2023-01-19T22:20:52.394Z,1.52
2023-01-19T22:26:39.215Z,1.72
2023-01-19T22:32:26.176Z,1.61
2023-01-19T22:38:12.993Z,1.52
2023-01-19T22:44:02.217Z,1.48
2023-01-19T22:49:48.909Z,1.41
2023-01-19T22:55:38.665Z,1.27
2023-01-19T23:01:38.760Z,1.13
2023-01-19T23:07:33.334Z,1.32
2023-01-19T23:13:20.088Z,1.51
2023-01-19T23:19:07.119Z,1.62
2023-01-19T23:24:53.809Z,1.87
2023-01-19T23:30:40.710Z,2.09
2023-01-19T23:36:29.806Z,2.04
2023-01-19T23:42:16.479Z,1.94
2023-01-19T23:48:03.921Z,2.04
2023-01-19T23:53:50.780Z,1.77
2023-01-19T23:59:37.404Z,1.72
